sensor_id;sensor_type;location;lat;lon;timestamp;temperature;humidity
17887;DHT22;9069;52.044;7.472;2022-12-07T00:01:41;8.80;99.90
17887;DHT22;9069;52.044;7.472;2022-12-07T00:04:12;8.80;99.90
17887;DHT22;9069;52.044;7.472;2022-12-07T00:06:44;8.80;99.90
17887;DHT22;9069;52.044;7.472;2022-12-07T00:09:13;8.80;99.90
17887;DHT22;9069;52.044;7.472;2022-12-07T00:11:41;8.80;99.90
17887;DHT22;9069;52.044;7.472;2022-12-07T00:14:11;8.80;99.90
17887;DHT22;9069;52.044;7.472;2022-12-07T00:16:38;8.80;99.90
17887;DHT22;9069;52.044;7.472;2022-12-07T00:19:05;8.80;99.90
17887;DHT22;9069;52.044;7.472;2022-12-07T00:21:34;8.80;99.90
17887;DHT22;9069;52.044;7.472;2022-12-07T00:24:03;8.70;99.90
17887;DHT22;9069;52.044;7.472;2022-12-07T00:26:38;8.70;99.90
17887;DHT22;9069;52.044;7.472;2022-12-07T00:29:09;8.70;99.90
17887;DHT22;9069;52.044;7.472;2022-12-07T00:31:37;8.70;99.90
17887;DHT22;9069;52.044;7.472;2022-12-07T00:34:09;8.70;99.90
17887;DHT22;9069;52.044;7.472;2022-12-07T00:36:38;8.70;99.90
17887;DHT22;9069;52.044;7.472;2022-12-07T00:39:04;8.70;99.90
17887;DHT22;9069;52.044;7.472;2022-12-07T00:41:31;8.70;99.90
17887;DHT22;9069;52.044;7.472;2022-12-07T00:43:58;8.60;99.90
17887;DHT22;9069;52.044;7.472;2022-12-07T00:46:25;8.60;99.90
17887;DHT22;9069;52.044;7.472;2022-12-07T00:48:53;8.60;99.90
17887;DHT22;9069;52.044;7.472;2022-12-07T00:51:22;8.60;99.90
17887;DHT22;9069;52.044;7.472;2022-12-07T00:53:49;8.60;99.90
17887;DHT22;9069;52.044;7.472;2022-12-07T00:56:23;8.60;99.90
17887;DHT22;9069;52.044;7.472;2022-12-07T00:58:54;8.60;99.90
17887;DHT22;9069;52.044;7.472;2022-12-07T01:01:23;8.50;99.90
17887;DHT22;9069;52.044;7.472;2022-12-07T01:03:50;8.60;99.90
17887;DHT22;9069;52.044;7.472;2022-12-07T01:06:18;8.60;99.90
17887;DHT22;9069;52.044;7.472;2022-12-07T01:08:45;8.50;99.90
17887;DHT22;9069;52.044;7.472;2022-12-07T01:11:18;8.50;99.90
17887;DHT22;9069;52.044;7.472;2022-12-07T01:13:46;8.50;99.90
17887;DHT22;9069;52.044;7.472;2022-12-07T01:16:14;8.50;99.90
17887;DHT22;9069;52.044;7.472;2022-12-07T01:18:42;8.40;99.90
17887;DHT22;9069;52.044;7.472;2022-12-07T01:21:12;8.40;99.90
17887;DHT22;9069;52.044;7.472;2022-12-07T01:23:39;8.40;99.90
17887;DHT22;9069;52.044;7.472;2022-12-07T01:26:09;8.40;99.90
17887;DHT22;9069;52.044;7.472;2022-12-07T01:28:36;8.40;99.90
17887;DHT22;9069;52.044;7.472;2022-12-07T01:31:08;8.30;99.90
17887;DHT22;9069;52.044;7.472;2022-12-07T01:33:38;8.30;99.90
17887;DHT22;9069;52.044;7.472;2022-12-07T01:36:32;8.30;99.90
17887;DHT22;9069;52.044;7.472;2022-12-07T01:39:02;8.30;99.90
17887;DHT22;9069;52.044;7.472;2022-12-07T01:41:32;8.20;99.90
17887;DHT22;9069;52.044;7.472;2022-12-07T01:44:22;8.20;99.90
17887;DHT22;9069;52.044;7.472;2022-12-07T01:46:50;8.20;99.90
17887;DHT22;9069;52.044;7.472;2022-12-07T01:49:35;8.20;99.90
17887;DHT22;9069;52.044;7.472;2022-12-07T01:52:18;8.10;99.90
17887;DHT22;9069;52.044;7.472;2022-12-07T01:54:47;8.10;99.90
17887;DHT22;9069;52.044;7.472;2022-12-07T01:57:15;8.00;99.90
17887;DHT22;9069;52.044;7.472;2022-12-07T01:59:45;8.00;99.90
17887;DHT22;9069;52.044;7.472;2022-12-07T02:02:19;8.00;99.90
17887;DHT22;9069;52.044;7.472;2022-12-07T02:04:46;7.90;99.90
17887;DHT22;9069;52.044;7.472;2022-12-07T02:07:13;7.90;99.90
17887;DHT22;9069;52.044;7.472;2022-12-07T02:09:40;7.90;99.90
17887;DHT22;9069;52.044;7.472;2022-12-07T02:12:07;7.90;99.90
17887;DHT22;9069;52.044;7.472;2022-12-07T02:14:34;7.80;99.90
17887;DHT22;9069;52.044;7.472;2022-12-07T02:17:14;7.80;99.90
17887;DHT22;9069;52.044;7.472;2022-12-07T02:23:11;7.80;99.90
17887;DHT22;9069;52.044;7.472;2022-12-07T02:29:21;7.70;99.90
17887;DHT22;9069;52.044;7.472;2022-12-07T02:32:06;7.60;99.90
17887;DHT22;9069;52.044;7.472;2022-12-07T02:40:19;7.60;99.90
17887;DHT22;9069;52.044;7.472;2022-12-07T02:42:58;7.60;99.90
17887;DHT22;9069;52.044;7.472;2022-12-07T02:45:27;7.50;99.90
17887;DHT22;9069;52.044;7.472;2022-12-07T02:47:58;7.50;99.90
17887;DHT22;9069;52.044;7.472;2022-12-07T02:50:26;7.50;99.90
17887;DHT22;9069;52.044;7.472;2022-12-07T02:52:54;7.50;99.90
17887;DHT22;9069;52.044;7.472;2022-12-07T02:55:31;7.50;99.90
17887;DHT22;9069;52.044;7.472;2022-12-07T02:58:22;7.40;99.90
17887;DHT22;9069;52.044;7.472;2022-12-07T03:01:11;7.40;99.90
17887;DHT22;9069;52.044;7.472;2022-12-07T03:03:40;7.40;99.90
17887;DHT22;9069;52.044;7.472;2022-12-07T03:06:31;7.40;99.90
17887;DHT22;9069;52.044;7.472;2022-12-07T03:09:29;7.40;99.90
17887;DHT22;9069;52.044;7.472;2022-12-07T03:12:08;7.30;99.90
17887;DHT22;9069;52.044;7.472;2022-12-07T03:14:41;7.30;99.90
17887;DHT22;9069;52.044;7.472;2022-12-07T03:17:16;7.30;99.90
17887;DHT22;9069;52.044;7.472;2022-12-07T03:19:46;7.30;99.90
17887;DHT22;9069;52.044;7.472;2022-12-07T03:22:14;7.30;99.90
17887;DHT22;9069;52.044;7.472;2022-12-07T03:24:53;7.30;99.90
17887;DHT22;9069;52.044;7.472;2022-12-07T03:27:27;7.30;99.90
17887;DHT22;9069;52.044;7.472;2022-12-07T03:30:02;7.30;99.90
17887;DHT22;9069;52.044;7.472;2022-12-07T03:37:55;7.20;99.90
17887;DHT22;9069;52.044;7.472;2022-12-07T03:42:59;7.20;99.90
17887;DHT22;9069;52.044;7.472;2022-12-07T03:45:43;7.20;99.90
17887;DHT22;9069;52.044;7.472;2022-12-07T03:48:45;7.20;99.90
17887;DHT22;9069;52.044;7.472;2022-12-07T03:54:33;7.20;99.90
17887;DHT22;9069;52.044;7.472;2022-12-07T03:57:02;7.20;99.90
17887;DHT22;9069;52.044;7.472;2022-12-07T03:59:29;7.20;99.90
17887;DHT22;9069;52.044;7.472;2022-12-07T04:02:01;7.20;99.90
17887;DHT22;9069;52.044;7.472;2022-12-07T04:04:29;7.20;99.90
17887;DHT22;9069;52.044;7.472;2022-12-07T04:06:55;7.20;99.90
17887;DHT22;9069;52.044;7.472;2022-12-07T04:09:22;7.20;99.90
17887;DHT22;9069;52.044;7.472;2022-12-07T04:11:49;7.20;99.90
17887;DHT22;9069;52.044;7.472;2022-12-07T04:14:15;7.20;99.90
17887;DHT22;9069;52.044;7.472;2022-12-07T04:19:12;7.20;99.90
17887;DHT22;9069;52.044;7.472;2022-12-07T04:21:39;7.20;99.90
17887;DHT22;9069;52.044;7.472;2022-12-07T04:24:06;7.20;99.90
17887;DHT22;9069;52.044;7.472;2022-12-07T04:26:33;7.20;99.90
17887;DHT22;9069;52.044;7.472;2022-12-07T04:29:00;7.20;99.90
17887;DHT22;9069;52.044;7.472;2022-12-07T04:31:33;7.20;99.90
17887;DHT22;9069;52.044;7.472;2022-12-07T04:34:00;7.20;99.90
17887;DHT22;9069;52.044;7.472;2022-12-07T04:36:26;7.20;99.90
17887;DHT22;9069;52.044;7.472;2022-12-07T04:38:54;7.20;99.90
17887;DHT22;9069;52.044;7.472;2022-12-07T04:41:22;7.20;99.90
17887;DHT22;9069;52.044;7.472;2022-12-07T04:43:58;7.10;99.90
17887;DHT22;9069;52.044;7.472;2022-12-07T04:46:25;7.10;99.90
17887;DHT22;9069;52.044;7.472;2022-12-07T04:48:53;7.20;99.90
17887;DHT22;9069;52.044;7.472;2022-12-07T04:51:22;7.10;99.90
17887;DHT22;9069;52.044;7.472;2022-12-07T04:53:50;7.10;99.90
17887;DHT22;9069;52.044;7.472;2022-12-07T04:56:17;7.10;99.90
17887;DHT22;9069;52.044;7.472;2022-12-07T04:58:45;7.10;99.90
17887;DHT22;9069;52.044;7.472;2022-12-07T05:01:13;7.10;99.90
17887;DHT22;9069;52.044;7.472;2022-12-07T05:03:40;7.10;99.90
17887;DHT22;9069;52.044;7.472;2022-12-07T05:06:07;7.10;99.90
17887;DHT22;9069;52.044;7.472;2022-12-07T05:08:39;7.10;99.90
17887;DHT22;9069;52.044;7.472;2022-12-07T05:11:07;7.10;99.90
17887;DHT22;9069;52.044;7.472;2022-12-07T05:13:34;7.10;99.90
17887;DHT22;9069;52.044;7.472;2022-12-07T05:16:01;7.10;99.90
17887;DHT22;9069;52.044;7.472;2022-12-07T05:18:28;7.10;99.90
17887;DHT22;9069;52.044;7.472;2022-12-07T05:20:54;7.10;99.90
17887;DHT22;9069;52.044;7.472;2022-12-07T05:23:21;7.10;99.90
17887;DHT22;9069;52.044;7.472;2022-12-07T05:25:48;7.10;99.90
17887;DHT22;9069;52.044;7.472;2022-12-07T05:28:14;7.10;99.90
17887;DHT22;9069;52.044;7.472;2022-12-07T05:30:41;7.10;99.90
17887;DHT22;9069;52.044;7.472;2022-12-07T05:33:08;7.10;99.90
17887;DHT22;9069;52.044;7.472;2022-12-07T05:35:34;7.10;99.90
17887;DHT22;9069;52.044;7.472;2022-12-07T05:38:01;7.10;99.90
17887;DHT22;9069;52.044;7.472;2022-12-07T05:40:28;7.10;99.90
17887;DHT22;9069;52.044;7.472;2022-12-07T05:42:54;7.10;99.90
17887;DHT22;9069;52.044;7.472;2022-12-07T05:45:28;7.10;99.90
17887;DHT22;9069;52.044;7.472;2022-12-07T05:47:55;7.10;99.90
17887;DHT22;9069;52.044;7.472;2022-12-07T05:50:21;7.10;99.90
17887;DHT22;9069;52.044;7.472;2022-12-07T05:52:59;7.10;99.90
17887;DHT22;9069;52.044;7.472;2022-12-07T05:55:26;7.10;99.90
17887;DHT22;9069;52.044;7.472;2022-12-07T05:57:52;7.10;99.90
17887;DHT22;9069;52.044;7.472;2022-12-07T06:00:38;7.10;99.90
17887;DHT22;9069;52.044;7.472;2022-12-07T06:03:04;7.10;99.90
17887;DHT22;9069;52.044;7.472;2022-12-07T06:05:31;7.10;99.90
17887;DHT22;9069;52.044;7.472;2022-12-07T06:07:58;7.10;99.90
17887;DHT22;9069;52.044;7.472;2022-12-07T06:10:31;7.10;99.90
17887;DHT22;9069;52.044;7.472;2022-12-07T06:12:57;7.10;99.90
17887;DHT22;9069;52.044;7.472;2022-12-07T06:15:24;7.10;99.90
17887;DHT22;9069;52.044;7.472;2022-12-07T06:17:51;7.10;99.90
17887;DHT22;9069;52.044;7.472;2022-12-07T06:20:17;7.10;99.90
17887;DHT22;9069;52.044;7.472;2022-12-07T06:22:44;7.10;99.90
17887;DHT22;9069;52.044;7.472;2022-12-07T06:25:11;7.10;99.90
17887;DHT22;9069;52.044;7.472;2022-12-07T06:27:37;7.10;99.90
17887;DHT22;9069;52.044;7.472;2022-12-07T06:30:04;7.10;99.90
17887;DHT22;9069;52.044;7.472;2022-12-07T06:32:33;7.10;99.90
17887;DHT22;9069;52.044;7.472;2022-12-07T06:35:00;7.10;99.90
17887;DHT22;9069;52.044;7.472;2022-12-07T06:37:27;7.10;99.90
17887;DHT22;9069;52.044;7.472;2022-12-07T06:39:54;7.10;99.90
17887;DHT22;9069;52.044;7.472;2022-12-07T06:42:20;7.10;99.90
17887;DHT22;9069;52.044;7.472;2022-12-07T06:44:47;7.10;99.90
17887;DHT22;9069;52.044;7.472;2022-12-07T06:47:14;7.10;99.90
17887;DHT22;9069;52.044;7.472;2022-12-07T06:50:00;7.00;99.90
17887;DHT22;9069;52.044;7.472;2022-12-07T06:52:28;7.10;99.90
17887;DHT22;9069;52.044;7.472;2022-12-07T06:54:54;7.00;99.90
17887;DHT22;9069;52.044;7.472;2022-12-07T06:57:21;7.00;99.90
17887;DHT22;9069;52.044;7.472;2022-12-07T06:59:49;6.90;99.90
17887;DHT22;9069;52.044;7.472;2022-12-07T07:02:15;6.90;99.90
17887;DHT22;9069;52.044;7.472;2022-12-07T07:04:42;6.90;99.90
17887;DHT22;9069;52.044;7.472;2022-12-07T07:07:09;6.90;99.90
17887;DHT22;9069;52.044;7.472;2022-12-07T07:09:36;6.90;99.90
17887;DHT22;9069;52.044;7.472;2022-12-07T07:12:02;6.90;99.90
17887;DHT22;9069;52.044;7.472;2022-12-07T07:14:29;6.90;99.90
17887;DHT22;9069;52.044;7.472;2022-12-07T07:16:56;6.90;99.90
17887;DHT22;9069;52.044;7.472;2022-12-07T07:19:22;6.90;99.90
17887;DHT22;9069;52.044;7.472;2022-12-07T07:21:49;6.90;99.90
17887;DHT22;9069;52.044;7.472;2022-12-07T07:24:16;6.90;99.90
17887;DHT22;9069;52.044;7.472;2022-12-07T07:26:43;6.90;99.90
17887;DHT22;9069;52.044;7.472;2022-12-07T07:29:09;6.90;99.90
17887;DHT22;9069;52.044;7.472;2022-12-07T07:31:36;6.90;99.90
17887;DHT22;9069;52.044;7.472;2022-12-07T07:34:04;6.90;99.90
17887;DHT22;9069;52.044;7.472;2022-12-07T07:36:31;6.90;99.90
17887;DHT22;9069;52.044;7.472;2022-12-07T07:38:57;6.90;99.90
17887;DHT22;9069;52.044;7.472;2022-12-07T07:41:24;6.90;99.90
17887;DHT22;9069;52.044;7.472;2022-12-07T07:43:51;6.90;99.90
17887;DHT22;9069;52.044;7.472;2022-12-07T07:46:17;6.90;99.90
17887;DHT22;9069;52.044;7.472;2022-12-07T07:48:44;6.90;99.90
17887;DHT22;9069;52.044;7.472;2022-12-07T07:51:11;7.00;99.90
17887;DHT22;9069;52.044;7.472;2022-12-07T07:53:37;7.00;99.90
17887;DHT22;9069;52.044;7.472;2022-12-07T07:56:04;7.00;99.90
17887;DHT22;9069;52.044;7.472;2022-12-07T07:58:30;7.00;99.90
17887;DHT22;9069;52.044;7.472;2022-12-07T08:01:03;7.00;99.90
17887;DHT22;9069;52.044;7.472;2022-12-07T08:03:30;7.00;99.90
17887;DHT22;9069;52.044;7.472;2022-12-07T08:05:57;7.00;99.90
17887;DHT22;9069;52.044;7.472;2022-12-07T08:08:23;7.00;99.90
17887;DHT22;9069;52.044;7.472;2022-12-07T08:10:50;7.00;99.90
17887;DHT22;9069;52.044;7.472;2022-12-07T08:13:17;6.90;99.90
17887;DHT22;9069;52.044;7.472;2022-12-07T08:15:46;6.90;99.90
17887;DHT22;9069;52.044;7.472;2022-12-07T08:18:14;6.90;99.90
17887;DHT22;9069;52.044;7.472;2022-12-07T08:20:42;6.90;99.90
17887;DHT22;9069;52.044;7.472;2022-12-07T08:23:09;6.90;99.90
17887;DHT22;9069;52.044;7.472;2022-12-07T08:25:36;6.90;99.90
17887;DHT22;9069;52.044;7.472;2022-12-07T08:28:03;7.00;99.90
17887;DHT22;9069;52.044;7.472;2022-12-07T08:30:30;7.00;99.90
17887;DHT22;9069;52.044;7.472;2022-12-07T08:32:57;7.00;99.90
17887;DHT22;9069;52.044;7.472;2022-12-07T08:35:25;7.00;99.90
17887;DHT22;9069;52.044;7.472;2022-12-07T08:37:52;7.00;99.90
17887;DHT22;9069;52.044;7.472;2022-12-07T08:40:19;7.00;99.90
17887;DHT22;9069;52.044;7.472;2022-12-07T08:42:51;7.10;99.90
17887;DHT22;9069;52.044;7.472;2022-12-07T08:45:18;7.10;99.90
17887;DHT22;9069;52.044;7.472;2022-12-07T08:48:06;7.10;99.90
17887;DHT22;9069;52.044;7.472;2022-12-07T08:50:36;7.20;99.90
17887;DHT22;9069;52.044;7.472;2022-12-07T08:53:04;7.20;99.90
17887;DHT22;9069;52.044;7.472;2022-12-07T08:55:32;7.30;99.90
17887;DHT22;9069;52.044;7.472;2022-12-07T08:58:00;7.30;99.90
17887;DHT22;9069;52.044;7.472;2022-12-07T09:00:28;7.40;99.90
17887;DHT22;9069;52.044;7.472;2022-12-07T09:02:55;7.40;99.90
17887;DHT22;9069;52.044;7.472;2022-12-07T09:05:22;7.40;99.90
17887;DHT22;9069;52.044;7.472;2022-12-07T09:07:51;7.50;99.90
17887;DHT22;9069;52.044;7.472;2022-12-07T09:10:21;7.50;99.90
17887;DHT22;9069;52.044;7.472;2022-12-07T09:12:48;7.50;99.90
17887;DHT22;9069;52.044;7.472;2022-12-07T09:15:14;7.60;99.90
17887;DHT22;9069;52.044;7.472;2022-12-07T09:17:41;7.60;99.90
17887;DHT22;9069;52.044;7.472;2022-12-07T09:20:08;7.60;99.90
17887;DHT22;9069;52.044;7.472;2022-12-07T09:22:35;7.60;99.90
17887;DHT22;9069;52.044;7.472;2022-12-07T09:25:02;7.70;99.90
17887;DHT22;9069;52.044;7.472;2022-12-07T09:27:30;7.80;99.90
17887;DHT22;9069;52.044;7.472;2022-12-07T09:29:57;7.80;99.90
17887;DHT22;9069;52.044;7.472;2022-12-07T09:32:23;7.90;99.90
17887;DHT22;9069;52.044;7.472;2022-12-07T09:34:50;8.10;99.90
17887;DHT22;9069;52.044;7.472;2022-12-07T09:37:17;8.20;99.90
17887;DHT22;9069;52.044;7.472;2022-12-07T09:39:44;8.40;99.90
17887;DHT22;9069;52.044;7.472;2022-12-07T09:42:38;8.60;99.90
17887;DHT22;9069;52.044;7.472;2022-12-07T09:45:11;8.90;99.90
17887;DHT22;9069;52.044;7.472;2022-12-07T09:47:38;9.10;99.90
17887;DHT22;9069;52.044;7.472;2022-12-07T09:50:12;9.40;99.90
17887;DHT22;9069;52.044;7.472;2022-12-07T09:52:39;9.70;99.90
17887;DHT22;9069;52.044;7.472;2022-12-07T09:55:27;10.00;99.90
17887;DHT22;9069;52.044;7.472;2022-12-07T09:57:54;10.30;99.90
17887;DHT22;9069;52.044;7.472;2022-12-07T10:00:22;10.50;99.90
17887;DHT22;9069;52.044;7.472;2022-12-07T10:02:56;10.60;99.90
17887;DHT22;9069;52.044;7.472;2022-12-07T10:05:36;10.70;99.90
17887;DHT22;9069;52.044;7.472;2022-12-07T10:08:05;10.90;99.90
17887;DHT22;9069;52.044;7.472;2022-12-07T10:10:34;11.00;99.90
17887;DHT22;9069;52.044;7.472;2022-12-07T10:13:14;11.20;99.90
17887;DHT22;9069;52.044;7.472;2022-12-07T10:15:55;11.30;99.90
17887;DHT22;9069;52.044;7.472;2022-12-07T10:18:41;11.40;99.90
17887;DHT22;9069;52.044;7.472;2022-12-07T10:23:40;11.50;99.90
17887;DHT22;9069;52.044;7.472;2022-12-07T10:26:40;11.60;99.90
17887;DHT22;9069;52.044;7.472;2022-12-07T10:29:29;11.60;99.90
17887;DHT22;9069;52.044;7.472;2022-12-07T10:32:28;11.50;99.90
17887;DHT22;9069;52.044;7.472;2022-12-07T10:35:22;11.50;99.90
17887;DHT22;9069;52.044;7.472;2022-12-07T10:37:50;11.40;99.90
17887;DHT22;9069;52.044;7.472;2022-12-07T10:43:02;11.10;99.90
17887;DHT22;9069;52.044;7.472;2022-12-07T10:45:29;11.00;99.90
17887;DHT22;9069;52.044;7.472;2022-12-07T10:51:02;10.80;99.90
17887;DHT22;9069;52.044;7.472;2022-12-07T11:05:14;10.50;99.90
17887;DHT22;9069;52.044;7.472;2022-12-07T11:07:51;10.40;99.90
17887;DHT22;9069;52.044;7.472;2022-12-07T11:24:33;10.30;99.90
17887;DHT22;9069;52.044;7.472;2022-12-07T11:37:31;10.30;99.90
17887;DHT22;9069;52.044;7.472;2022-12-07T11:40:16;10.30;99.90
17887;DHT22;9069;52.044;7.472;2022-12-07T11:43:15;10.30;99.90
17887;DHT22;9069;52.044;7.472;2022-12-07T11:45:47;10.20;99.90
17887;DHT22;9069;52.044;7.472;2022-12-07T11:48:29;10.30;99.90
17887;DHT22;9069;52.044;7.472;2022-12-07T11:51:00;10.20;99.90
17887;DHT22;9069;52.044;7.472;2022-12-07T11:53:46;10.20;99.90
17887;DHT22;9069;52.044;7.472;2022-12-07T11:56:34;10.20;99.90
17887;DHT22;9069;52.044;7.472;2022-12-07T11:59:13;10.10;99.90
17887;DHT22;9069;52.044;7.472;2022-12-07T12:01:50;10.10;99.90
17887;DHT22;9069;52.044;7.472;2022-12-07T12:04:58;10.10;99.90
17887;DHT22;9069;52.044;7.472;2022-12-07T12:07:26;10.10;99.90
17887;DHT22;9069;52.044;7.472;2022-12-07T12:10:21;10.00;99.90
17887;DHT22;9069;52.044;7.472;2022-12-07T12:13:02;10.00;99.90
17887;DHT22;9069;52.044;7.472;2022-12-07T12:19:03;10.00;99.90
17887;DHT22;9069;52.044;7.472;2022-12-07T12:21:34;10.00;99.90
17887;DHT22;9069;52.044;7.472;2022-12-07T12:24:12;9.90;99.90
17887;DHT22;9069;52.044;7.472;2022-12-07T12:26:49;9.90;99.90
17887;DHT22;9069;52.044;7.472;2022-12-07T12:29:41;9.90;99.90
17887;DHT22;9069;52.044;7.472;2022-12-07T12:32:17;9.90;99.90
17887;DHT22;9069;52.044;7.472;2022-12-07T12:42:54;9.80;99.90
17887;DHT22;9069;52.044;7.472;2022-12-07T12:45:32;9.80;99.90
17887;DHT22;9069;52.044;7.472;2022-12-07T12:48:02;9.70;99.90
17887;DHT22;9069;52.044;7.472;2022-12-07T12:50:31;9.70;99.90
17887;DHT22;9069;52.044;7.472;2022-12-07T12:53:24;9.70;99.90
17887;DHT22;9069;52.044;7.472;2022-12-07T12:56:20;9.60;99.90
17887;DHT22;9069;52.044;7.472;2022-12-07T12:59:22;9.60;99.90
17887;DHT22;9069;52.044;7.472;2022-12-07T13:02:08;9.50;99.90
17887;DHT22;9069;52.044;7.472;2022-12-07T13:04:51;9.60;99.90
17887;DHT22;9069;52.044;7.472;2022-12-07T13:13:25;9.50;99.90
17887;DHT22;9069;52.044;7.472;2022-12-07T13:15:56;9.40;99.90
17887;DHT22;9069;52.044;7.472;2022-12-07T13:18:41;9.40;99.90
17887;DHT22;9069;52.044;7.472;2022-12-07T13:36:58;9.50;99.90
17887;DHT22;9069;52.044;7.472;2022-12-07T13:39:26;9.50;99.90
17887;DHT22;9069;52.044;7.472;2022-12-07T13:41:58;9.50;99.90
17887;DHT22;9069;52.044;7.472;2022-12-07T13:44:27;9.50;99.90
17887;DHT22;9069;52.044;7.472;2022-12-07T13:47:13;9.50;99.90
17887;DHT22;9069;52.044;7.472;2022-12-07T13:49:51;9.50;99.90
17887;DHT22;9069;52.044;7.472;2022-12-07T13:52:20;9.50;99.90
17887;DHT22;9069;52.044;7.472;2022-12-07T13:57:17;9.50;99.90
17887;DHT22;9069;52.044;7.472;2022-12-07T13:59:44;9.50;99.90
17887;DHT22;9069;52.044;7.472;2022-12-07T14:02:26;9.50;99.90
17887;DHT22;9069;52.044;7.472;2022-12-07T14:12:55;9.40;99.90
17887;DHT22;9069;52.044;7.472;2022-12-07T14:15:28;9.40;99.90
17887;DHT22;9069;52.044;7.472;2022-12-07T14:17:55;9.40;99.90
17887;DHT22;9069;52.044;7.472;2022-12-07T14:20:32;9.40;99.90
17887;DHT22;9069;52.044;7.472;2022-12-07T14:22:59;9.40;99.90
17887;DHT22;9069;52.044;7.472;2022-12-07T14:25:48;9.40;99.90
17887;DHT22;9069;52.044;7.472;2022-12-07T14:28:34;9.30;99.90
17887;DHT22;9069;52.044;7.472;2022-12-07T14:31:03;9.30;99.90
17887;DHT22;9069;52.044;7.472;2022-12-07T14:33:30;9.30;99.90
17887;DHT22;9069;52.044;7.472;2022-12-07T14:35:57;9.20;99.90
17887;DHT22;9069;52.044;7.472;2022-12-07T14:38:25;9.20;99.90
17887;DHT22;9069;52.044;7.472;2022-12-07T14:40:53;9.20;99.90
17887;DHT22;9069;52.044;7.472;2022-12-07T14:43:20;9.20;99.90
17887;DHT22;9069;52.044;7.472;2022-12-07T14:45:47;9.10;99.90
17887;DHT22;9069;52.044;7.472;2022-12-07T14:48:15;9.10;99.90
17887;DHT22;9069;52.044;7.472;2022-12-07T14:51:02;9.10;99.90
17887;DHT22;9069;52.044;7.472;2022-12-07T14:53:51;9.00;99.90
17887;DHT22;9069;52.044;7.472;2022-12-07T14:56:24;9.00;99.90
17887;DHT22;9069;52.044;7.472;2022-12-07T14:58:51;9.00;99.90
17887;DHT22;9069;52.044;7.472;2022-12-07T15:01:18;8.90;99.90
17887;DHT22;9069;52.044;7.472;2022-12-07T15:03:44;8.90;99.90
17887;DHT22;9069;52.044;7.472;2022-12-07T15:06:14;8.90;99.90
17887;DHT22;9069;52.044;7.472;2022-12-07T15:08:41;8.90;99.90
17887;DHT22;9069;52.044;7.472;2022-12-07T15:11:14;8.80;99.90
17887;DHT22;9069;52.044;7.472;2022-12-07T15:13:41;8.80;99.90
17887;DHT22;9069;52.044;7.472;2022-12-07T15:16:27;8.80;99.90
17887;DHT22;9069;52.044;7.472;2022-12-07T15:19:14;8.80;99.90
17887;DHT22;9069;52.044;7.472;2022-12-07T15:21:57;8.70;99.90
17887;DHT22;9069;52.044;7.472;2022-12-07T15:24:25;8.70;99.90
17887;DHT22;9069;52.044;7.472;2022-12-07T15:26:52;8.70;99.90
17887;DHT22;9069;52.044;7.472;2022-12-07T15:29:19;8.70;99.90
17887;DHT22;9069;52.044;7.472;2022-12-07T15:31:50;8.60;99.90
17887;DHT22;9069;52.044;7.472;2022-12-07T15:34:24;8.60;99.90
17887;DHT22;9069;52.044;7.472;2022-12-07T15:36:51;8.60;99.90
17887;DHT22;9069;52.044;7.472;2022-12-07T15:39:18;8.60;99.90
17887;DHT22;9069;52.044;7.472;2022-12-07T15:41:44;8.60;99.90
17887;DHT22;9069;52.044;7.472;2022-12-07T15:44:12;8.60;99.90
17887;DHT22;9069;52.044;7.472;2022-12-07T15:46:58;8.60;99.90
17887;DHT22;9069;52.044;7.472;2022-12-07T15:49:25;8.50;99.90
17887;DHT22;9069;52.044;7.472;2022-12-07T15:51:52;8.60;99.90
17887;DHT22;9069;52.044;7.472;2022-12-07T15:54:24;8.50;99.90
17887;DHT22;9069;52.044;7.472;2022-12-07T15:56:51;8.50;99.90
17887;DHT22;9069;52.044;7.472;2022-12-07T15:59:18;8.50;99.90
17887;DHT22;9069;52.044;7.472;2022-12-07T16:01:45;8.50;99.90
17887;DHT22;9069;52.044;7.472;2022-12-07T16:04:12;8.50;99.90
17887;DHT22;9069;52.044;7.472;2022-12-07T16:06:39;8.50;99.90
17887;DHT22;9069;52.044;7.472;2022-12-07T16:09:06;8.50;99.90
17887;DHT22;9069;52.044;7.472;2022-12-07T16:11:33;8.50;99.90
17887;DHT22;9069;52.044;7.472;2022-12-07T16:14:00;8.50;99.90
17887;DHT22;9069;52.044;7.472;2022-12-07T16:16:27;8.50;99.90
17887;DHT22;9069;52.044;7.472;2022-12-07T16:18:54;8.50;99.90
17887;DHT22;9069;52.044;7.472;2022-12-07T16:21:21;8.50;99.90
17887;DHT22;9069;52.044;7.472;2022-12-07T16:23:51;8.50;99.90
17887;DHT22;9069;52.044;7.472;2022-12-07T16:26:20;8.50;99.90
17887;DHT22;9069;52.044;7.472;2022-12-07T16:28:51;8.50;99.90
17887;DHT22;9069;52.044;7.472;2022-12-07T16:31:20;8.50;99.90
17887;DHT22;9069;52.044;7.472;2022-12-07T16:33:48;8.50;99.90
17887;DHT22;9069;52.044;7.472;2022-12-07T16:36:16;8.50;99.90
17887;DHT22;9069;52.044;7.472;2022-12-07T16:39:03;8.50;99.90
17887;DHT22;9069;52.044;7.472;2022-12-07T16:41:30;8.50;99.90
17887;DHT22;9069;52.044;7.472;2022-12-07T16:44:03;8.50;99.90
17887;DHT22;9069;52.044;7.472;2022-12-07T16:46:32;8.50;99.90
17887;DHT22;9069;52.044;7.472;2022-12-07T16:48:59;8.50;99.90
17887;DHT22;9069;52.044;7.472;2022-12-07T16:51:26;8.40;99.90
17887;DHT22;9069;52.044;7.472;2022-12-07T16:53:53;8.40;99.90
17887;DHT22;9069;52.044;7.472;2022-12-07T16:56:20;8.40;99.90
17887;DHT22;9069;52.044;7.472;2022-12-07T16:58:47;8.40;99.90
17887;DHT22;9069;52.044;7.472;2022-12-07T17:01:20;8.40;99.90
17887;DHT22;9069;52.044;7.472;2022-12-07T17:03:49;8.40;99.90
17887;DHT22;9069;52.044;7.472;2022-12-07T17:06:17;8.40;99.90
17887;DHT22;9069;52.044;7.472;2022-12-07T17:08:44;8.40;99.90
17887;DHT22;9069;52.044;7.472;2022-12-07T17:11:17;8.40;99.90
17887;DHT22;9069;52.044;7.472;2022-12-07T17:13:44;8.40;99.90
17887;DHT22;9069;52.044;7.472;2022-12-07T17:16:29;8.40;99.90
17887;DHT22;9069;52.044;7.472;2022-12-07T17:18:57;8.40;99.90
17887;DHT22;9069;52.044;7.472;2022-12-07T17:21:24;8.40;99.90
17887;DHT22;9069;52.044;7.472;2022-12-07T17:23:51;8.40;99.90
17887;DHT22;9069;52.044;7.472;2022-12-07T17:26:24;8.40;99.90
17887;DHT22;9069;52.044;7.472;2022-12-07T17:28:58;8.30;99.90
17887;DHT22;9069;52.044;7.472;2022-12-07T17:31:25;8.30;99.90
17887;DHT22;9069;52.044;7.472;2022-12-07T17:33:52;8.40;99.90
17887;DHT22;9069;52.044;7.472;2022-12-07T17:36:21;8.30;99.90
17887;DHT22;9069;52.044;7.472;2022-12-07T17:38:49;8.30;99.90
17887;DHT22;9069;52.044;7.472;2022-12-07T17:41:21;8.30;99.90
17887;DHT22;9069;52.044;7.472;2022-12-07T17:44:10;8.30;99.90
17887;DHT22;9069;52.044;7.472;2022-12-07T17:46:38;8.30;99.90
17887;DHT22;9069;52.044;7.472;2022-12-07T17:49:05;8.30;99.90
17887;DHT22;9069;52.044;7.472;2022-12-07T17:51:33;8.30;99.90
17887;DHT22;9069;52.044;7.472;2022-12-07T17:54:18;8.30;99.90
17887;DHT22;9069;52.044;7.472;2022-12-07T17:56:45;8.30;99.90
17887;DHT22;9069;52.044;7.472;2022-12-07T17:59:13;8.30;99.90
17887;DHT22;9069;52.044;7.472;2022-12-07T18:01:39;8.30;99.90
17887;DHT22;9069;52.044;7.472;2022-12-07T18:04:07;8.30;99.90
17887;DHT22;9069;52.044;7.472;2022-12-07T18:06:34;8.30;99.90
17887;DHT22;9069;52.044;7.472;2022-12-07T18:09:02;8.30;99.90
17887;DHT22;9069;52.044;7.472;2022-12-07T18:11:29;8.30;99.90
17887;DHT22;9069;52.044;7.472;2022-12-07T18:13:55;8.30;99.90
17887;DHT22;9069;52.044;7.472;2022-12-07T18:16:24;8.20;99.90
17887;DHT22;9069;52.044;7.472;2022-12-07T18:18:52;8.20;99.90
17887;DHT22;9069;52.044;7.472;2022-12-07T18:21:25;8.20;99.90